ASY11 EGVN-ESPA
Flight info
| Callsign | ASY11 |
|---|---|
| Flight time | N/A |
| Altitude | 21000 |
| Route | KIDLI DCT BKY M183 REDFA DCT DISRA DCT SUTEB DCT OKMAM P850 DANKO M604 SVA M609 RIPAM DCT IXUMA DCT OSLAV DCT LUKIG DCT RISEM |
| Aircraft | C30J/M-SDE2E3FGRY/H |
Departure
| Time | 2026-05-05 06:09 |
|---|---|
| Airport | RAF Brize Norton (EGVN) |
Arrival
| Time | N/A |
|---|---|
| Airport | Luleå Airport (ESPA) |
| Time | Latitude | Longitude | Altitude | Speed | Heading |
|---|---|---|---|---|---|
| 2026-05-05 05:44 | 51.74521 | -1.59605 | 262 ft | 0 kts | 134° |
| 2026-05-05 06:04 | 51.74520 | -1.59603 | 262 ft | 1 kts | 134° |
| 2026-05-05 06:04 | 51.74501 | -1.59586 | 262 ft | 5 kts | 153° |
| 2026-05-05 06:04 | 51.74462 | -1.59573 | 262 ft | 5 kts | 198° |
| 2026-05-05 06:05 | 51.74445 | -1.59627 | 262 ft | 7 kts | 252° |
| 2026-05-05 06:05 | 51.74436 | -1.59675 | 262 ft | 3 kts | 253° |
| 2026-05-05 06:05 | 51.74428 | -1.59733 | 262 ft | 8 kts | 262° |
| 2026-05-05 06:05 | 51.74430 | -1.59820 | 262 ft | 6 kts | 281° |
| 2026-05-05 06:06 | 51.74441 | -1.59871 | 262 ft | 6 kts | 293° |
| 2026-05-05 06:06 | 51.74453 | -1.59905 | 262 ft | 4 kts | 297° |
| 2026-05-05 06:06 | 51.74475 | -1.59975 | 262 ft | 7 kts | 302° |
| 2026-05-05 06:06 | 51.74492 | -1.60012 | 262 ft | 3 kts | 309° |
| 2026-05-05 06:07 | 51.74519 | -1.60047 | 262 ft | 6 kts | 329° |
| 2026-05-05 06:07 | 51.74552 | -1.60069 | 262 ft | 5 kts | 341° |
| 2026-05-05 06:07 | 51.74588 | -1.60087 | 262 ft | 6 kts | 343° |
| 2026-05-05 06:07 | 51.74629 | -1.60099 | 262 ft | 6 kts | 2° |
| 2026-05-05 06:08 | 51.74669 | -1.60060 | 261 ft | 8 kts | 51° |
| 2026-05-05 06:08 | 51.74693 | -1.59942 | 260 ft | 12 kts | 73° |
| 2026-05-05 06:08 | 51.74734 | -1.59743 | 259 ft | 50 kts | 73° |
| 2026-05-05 06:08 | 51.74898 | -1.58825 | 264 ft | 130 kts | 73° |
| 2026-05-05 06:09 | 51.75188 | -1.57171 | 436 ft | 171 kts | 74° |
| 2026-05-05 06:09 | 51.75456 | -1.55419 | 739 ft | 192 kts | 73° |
| 2026-05-05 06:09 | 51.75804 | -1.53310 | 1337 ft | 207 kts | 74° |
| 2026-05-05 06:09 | 51.76047 | -1.50894 | 1616 ft | 231 kts | 99° |
| 2026-05-05 06:10 | 51.75122 | -1.48859 | 1683 ft | 239 kts | 149° |
| 2026-05-05 06:10 | 51.73518 | -1.48514 | 1845 ft | 239 kts | 197° |
| 2026-05-05 06:10 | 51.72301 | -1.50006 | 1772 ft | 212 kts | 236° |
| 2026-05-05 06:10 | 51.71565 | -1.51918 | 1701 ft | 189 kts | 242° |
| 2026-05-05 06:11 | 51.70930 | -1.53672 | 1528 ft | 179 kts | 243° |
| 2026-05-05 06:11 | 51.70325 | -1.55380 | 1529 ft | 170 kts | 243° |
| 2026-05-05 06:11 | 51.69814 | -1.57000 | 1522 ft | 174 kts | 248° |
| 2026-05-05 06:11 | 51.69372 | -1.58604 | 1543 ft | 177 kts | 250° |
| 2026-05-05 06:12 | 51.69210 | -1.59839 | 1615 ft | 170 kts | 286° |
| 2026-05-05 06:12 | 51.70179 | -1.61365 | 1556 ft | 171 kts | 338° |
| 2026-05-05 06:12 | 51.71218 | -1.62104 | 1383 ft | 150 kts | 341° |
| 2026-05-05 06:12 | 51.71853 | -1.62494 | 1187 ft | 142 kts | 343° |
| 2026-05-05 06:13 | 51.73090 | -1.63101 | 1049 ft | 146 kts | 352° |
| 2026-05-05 06:13 | 51.73657 | -1.62945 | 902 ft | 149 kts | 25° |
| 2026-05-05 06:13 | 51.74314 | -1.61763 | 520 ft | 143 kts | 66° |
| 2026-05-05 06:13 | 51.74617 | -1.60286 | 297 ft | 134 kts | 71° |
| 2026-05-05 06:14 | 51.74850 | -1.59163 | 263 ft | 63 kts | 72° |
| 2026-05-05 06:14 | 51.74914 | -1.58763 | 264 ft | 29 kts | 71° |
| 2026-05-05 06:14 | 51.74985 | -1.58475 | 262 ft | 27 kts | 60° |
| 2026-05-05 06:14 | 51.75016 | -1.58292 | 262 ft | 17 kts | 91° |
| 2026-05-05 06:15 | 51.74953 | -1.58221 | 262 ft | 14 kts | 203° |
| 2026-05-05 06:15 | 51.74873 | -1.58291 | 262 ft | 11 kts | 208° |
| 2026-05-05 06:15 | 51.74798 | -1.58356 | 262 ft | 10 kts | 208° |
| 2026-05-05 06:15 | 51.74747 | -1.58401 | 262 ft | 7 kts | 208° |
| 2026-05-05 06:16 | 51.74699 | -1.58443 | 262 ft | 10 kts | 209° |
| 2026-05-05 06:16 | 51.74656 | -1.58497 | 262 ft | 6 kts | 232° |
| 2026-05-05 06:16 | 51.74644 | -1.58546 | 262 ft | 6 kts | 250° |
| 2026-05-05 06:16 | 51.74627 | -1.58638 | 262 ft | 10 kts | 253° |
| 2026-05-05 06:17 | 51.74612 | -1.58721 | 262 ft | 6 kts | 254° |
| 2026-05-05 06:17 | 51.74610 | -1.58770 | 262 ft | 5 kts | 282° |
| 2026-05-05 06:17 | 51.74625 | -1.58806 | 262 ft | 3 kts | 325° |
| 2026-05-05 06:17 | 51.74652 | -1.58821 | 262 ft | 5 kts | 342° |
| 2026-05-05 06:18 | 51.74687 | -1.58841 | 262 ft | 4 kts | 336° |
| 2026-05-05 06:18 | 51.74698 | -1.58867 | 262 ft | 3 kts | 289° |
| 2026-05-05 06:18 | 51.74692 | -1.58911 | 262 ft | 5 kts | 253° |
| 2026-05-05 06:18 | 51.74677 | -1.58970 | 262 ft | 4 kts | 231° |
| 2026-05-05 06:19 | 51.74663 | -1.58971 | 262 ft | 1 kts | 176° |
| 2026-05-05 06:19 | 51.74649 | -1.58966 | 262 ft | 3 kts | 165° |
| 2026-05-05 06:19 | 51.74632 | -1.58956 | 262 ft | 0 kts | 162° |